createdAt,value
2022-10-05T04:41:56.281Z,13.00
2022-10-05T04:44:44.460Z,22.67
2022-10-05T04:47:45.517Z,21.95
2022-10-05T04:50:47.990Z,16.83
2022-10-05T04:53:31.759Z,16.00
2022-10-05T04:56:18.198Z,15.65
2022-10-05T04:59:00.379Z,13.27
2022-10-05T05:01:39.511Z,8.98
2022-10-05T05:04:27.219Z,10.95
2022-10-05T05:07:28.539Z,12.43
2022-10-05T05:10:14.028Z,15.00
2022-10-05T05:13:28.093Z,12.18
2022-10-05T05:16:07.343Z,7.72
2022-10-05T05:18:54.425Z,10.27
2022-10-05T05:21:50.198Z,10.63
2022-10-05T05:24:25.899Z,12.85
2022-10-05T05:27:12.414Z,10.88
2022-10-05T05:29:48.437Z,13.80
2022-10-05T05:32:33.628Z,14.65
2022-10-05T05:35:42.691Z,11.60
2022-10-05T05:38:29.220Z,17.88
2022-10-05T05:41:02.804Z,7.32
2022-10-05T05:43:43.461Z,8.10
2022-10-05T05:46:15.998Z,8.45
2022-10-05T05:48:47.784Z,16.48
2022-10-05T05:51:23.225Z,13.25
2022-10-05T05:54:00.504Z,11.95
2022-10-05T05:56:41.804Z,8.13
2022-10-05T05:59:20.032Z,7.30
2022-10-05T06:01:54.020Z,13.15
2022-10-05T06:04:33.243Z,6.97
2022-10-05T06:07:02.771Z,15.50
2022-10-05T06:09:40.458Z,11.43
2022-10-05T06:12:15.448Z,15.38
2022-10-05T06:14:48.130Z,10.95
2022-10-05T06:17:37.006Z,15.65
2022-10-05T06:20:11.606Z,11.80
2022-10-05T06:22:45.149Z,11.32
2022-10-05T06:25:12.019Z,8.80
2022-10-05T06:28:18.195Z,12.25
2022-10-05T06:31:09.442Z,14.77
2022-10-05T06:33:46.591Z,7.53
2022-10-05T06:36:18.066Z,10.45
2022-10-05T06:38:53.993Z,11.07
2022-10-05T06:41:50.864Z,9.45
2022-10-05T06:44:27.813Z,7.75
2022-10-05T06:47:16.336Z,9.73
2022-10-05T06:50:10.303Z,9.60
2022-10-05T06:52:46.078Z,7.00
2022-10-05T06:55:50.880Z,8.20
2022-10-05T06:58:28.576Z,9.43
2022-10-05T07:01:04.558Z,7.45
2022-10-05T07:03:40.562Z,6.97
2022-10-05T07:06:19.282Z,7.25
2022-10-05T07:08:53.581Z,8.52
2022-10-05T07:11:36.324Z,6.90
2022-10-05T07:14:40.963Z,8.40
2022-10-05T07:17:44.825Z,8.57
2022-10-05T07:20:29.114Z,11.38
2022-10-05T07:23:20.457Z,8.35
2022-10-05T07:26:15.275Z,8.35
2022-10-05T07:29:12.775Z,10.07
2022-10-05T07:31:55.478Z,9.15
2022-10-05T07:34:50.305Z,8.85
2022-10-05T07:37:45.826Z,9.93
2022-10-05T07:40:19.825Z,12.20
2022-10-05T07:43:14.636Z,12.82
2022-10-05T07:46:13.235Z,9.43
2022-10-05T07:49:07.471Z,7.57
2022-10-05T07:51:41.345Z,9.90
2022-10-05T07:54:24.295Z,8.13
2022-10-05T07:57:13.753Z,9.82
2022-10-05T08:00:01.116Z,9.23
2022-10-05T08:02:49.729Z,15.98
2022-10-05T08:05:34.724Z,12.70
2022-10-05T08:08:14.389Z,9.00
2022-10-05T08:10:50.733Z,10.20
2022-10-05T08:13:32.312Z,10.88
2022-10-05T08:16:03.301Z,13.38
2022-10-05T08:19:07.311Z,23.77
2022-10-05T08:21:39.098Z,14.85
2022-10-05T08:24:17.825Z,9.73
2022-10-05T08:26:44.783Z,10.45
2022-10-05T08:29:30.608Z,15.57
2022-10-05T08:32:01.854Z,13.48
2022-10-05T08:34:34.496Z,11.45
2022-10-05T08:37:24.697Z,14.65
2022-10-05T08:40:16.297Z,13.45
2022-10-05T08:43:07.194Z,7.35
2022-10-05T08:46:11.624Z,8.75
2022-10-05T08:49:04.499Z,12.80
2022-10-05T08:51:37.122Z,8.75
2022-10-05T08:54:31.732Z,21.85
2022-10-05T08:57:40.271Z,16.33
2022-10-05T09:00:12.319Z,9.52
2022-10-05T09:03:09.858Z,9.00
2022-10-05T09:06:11.878Z,11.15
2022-10-05T09:12:14.514Z,7.20
2022-10-05T09:15:13.623Z,8.57
2022-10-05T09:18:10.456Z,9.27
2022-10-05T09:20:57.891Z,8.43
2022-10-05T09:23:44.501Z,8.18
2022-10-05T09:26:26.338Z,7.60
2022-10-05T09:29:14.714Z,7.70
2022-10-05T09:32:11.713Z,10.15
2022-10-05T09:35:09.439Z,11.43
2022-10-05T09:37:36.437Z,10.30
2022-10-05T09:40:41.524Z,8.10
2022-10-05T09:43:20.368Z,10.27
2022-10-05T09:46:11.642Z,12.68
2022-10-05T09:48:51.526Z,8.65
2022-10-05T09:51:28.396Z,11.38
2022-10-05T09:54:32.840Z,8.75
2022-10-05T09:57:31.945Z,9.48
2022-10-05T10:00:38.485Z,7.85
2022-10-05T10:03:43.157Z,6.75
2022-10-05T10:06:37.465Z,5.90
2022-10-05T10:09:25.583Z,5.60
2022-10-05T10:12:20.470Z,6.25
2022-10-05T10:15:25.896Z,5.03
2022-10-05T10:17:58.947Z,7.32
2022-10-05T10:20:45.775Z,5.63
2022-10-05T10:23:32.462Z,5.95
2022-10-05T10:26:37.008Z,7.57
2022-10-05T10:29:51.224Z,7.30
2022-10-05T10:32:24.040Z,8.30
2022-10-05T10:34:59.903Z,8.10
2022-10-05T10:38:04.539Z,5.97
2022-10-05T10:41:08.837Z,6.40
2022-10-05T10:43:54.477Z,6.28
2022-10-05T10:46:59.323Z,6.43
2022-10-05T10:49:32.046Z,6.88
2022-10-05T10:52:29.179Z,6.85
2022-10-05T10:55:29.159Z,5.43
2022-10-05T10:58:16.229Z,6.45
2022-10-05T11:00:46.263Z,5.43
2022-10-05T11:03:44.057Z,5.45
2022-10-05T11:06:13.896Z,5.45
2022-10-05T11:09:02.909Z,5.03
2022-10-05T11:11:32.622Z,6.05
2022-10-05T11:14:34.854Z,6.35
2022-10-05T11:17:18.167Z,7.55
2022-10-05T11:20:03.494Z,5.53
2022-10-05T11:23:12.779Z,6.30
2022-10-05T11:25:48.589Z,7.15
2022-10-05T11:28:35.593Z,5.55
2022-10-05T11:31:21.513Z,5.32
2022-10-05T11:34:07.240Z,4.72
2022-10-05T11:36:46.547Z,4.88
2022-10-05T11:39:16.516Z,4.80
2022-10-05T11:41:51.691Z,5.63
2022-10-05T11:45:11.658Z,7.32
2022-10-05T11:47:58.603Z,4.47
2022-10-05T11:50:34.185Z,4.32
2022-10-05T11:53:19.499Z,4.32
2022-10-05T11:55:58.180Z,4.57
2022-10-05T11:58:58.521Z,5.72
2022-10-05T12:01:57.231Z,6.40
2022-10-05T12:04:50.987Z,5.15
2022-10-05T12:07:39.052Z,5.43
2022-10-05T12:10:14.759Z,4.97
2022-10-05T12:13:02.121Z,4.85
2022-10-05T12:15:40.824Z,5.88
2022-10-05T12:18:31.224Z,5.95
2022-10-05T12:21:07.742Z,5.65
2022-10-05T12:23:44.208Z,7.13
2022-10-05T12:26:16.763Z,6.30
2022-10-05T12:28:43.814Z,5.25
2022-10-05T12:31:29.132Z,4.78
2022-10-05T12:34:23.846Z,6.03
2022-10-05T12:37:04.038Z,5.47
2022-10-05T12:39:54.828Z,5.22
2022-10-05T12:42:46.138Z,7.10
2022-10-05T12:45:13.457Z,5.70
2022-10-05T12:48:02.279Z,7.47
2022-10-05T12:50:39.600Z,5.75
2022-10-05T12:53:39.507Z,10.07
2022-10-05T12:56:32.307Z,6.22
2022-10-05T12:59:24.891Z,6.53
2022-10-05T13:02:02.578Z,5.75
2022-10-05T13:04:38.652Z,8.82
2022-10-05T13:07:39.625Z,6.75
2022-10-05T13:10:33.591Z,5.47
2022-10-05T13:13:21.999Z,5.57
2022-10-05T13:16:31.347Z,4.65
2022-10-05T13:19:19.561Z,6.90
2022-10-05T13:21:47.398Z,4.45
2022-10-05T13:24:38.198Z,6.10
2022-10-05T13:27:18.563Z,5.35
2022-10-05T13:29:56.511Z,5.00
2022-10-05T13:32:41.305Z,4.68
2022-10-05T13:36:03.841Z,4.70
2022-10-05T13:39:01.800Z,5.10
2022-10-05T13:41:28.955Z,5.20
2022-10-05T13:44:10.430Z,4.00
2022-10-05T13:47:01.342Z,3.92
2022-10-05T13:52:49.314Z,3.53
2022-10-05T13:55:43.706Z,4.00
2022-10-05T13:58:32.945Z,3.92
2022-10-05T14:01:02.821Z,3.55
2022-10-05T14:03:36.058Z,3.80
2022-10-05T14:06:13.170Z,3.42
2022-10-05T14:08:53.015Z,3.20
2022-10-05T14:11:24.365Z,3.13
2022-10-05T14:16:23.976Z,3.05
2022-10-05T14:19:11.216Z,3.17
2022-10-05T14:22:22.392Z,4.35
2022-10-05T14:24:57.046Z,3.25
2022-10-05T14:27:33.507Z,3.13
2022-10-05T14:30:18.808Z,3.20
2022-10-05T14:32:56.195Z,5.32
2022-10-05T14:35:28.217Z,3.92
2022-10-05T14:38:02.257Z,4.85
2022-10-05T14:40:35.669Z,3.83
2022-10-05T14:43:23.176Z,3.08
2022-10-05T14:45:58.092Z,3.28
2022-10-05T14:48:28.138Z,2.58
2022-10-05T14:51:03.827Z,5.43
2022-10-05T14:53:46.532Z,3.53
2022-10-05T14:56:25.343Z,2.90
2022-10-05T14:59:05.285Z,2.53
2022-10-05T15:01:37.053Z,4.20
2022-10-05T15:04:32.131Z,3.53
2022-10-05T15:07:44.671Z,2.80
2022-10-05T15:10:26.935Z,2.42
2022-10-05T15:12:58.346Z,2.97
2022-10-05T15:15:54.548Z,2.80
2022-10-05T15:18:49.337Z,4.10
2022-10-05T15:21:31.932Z,4.63
2022-10-05T15:24:20.696Z,4.82
2022-10-05T15:26:51.321Z,3.80
2022-10-05T15:29:52.187Z,5.00
2022-10-05T15:32:55.609Z,4.90
2022-10-05T15:35:29.194Z,5.07
2022-10-05T15:38:21.280Z,5.32
2022-10-05T15:40:54.850Z,7.47
2022-10-05T15:43:23.647Z,5.65
2022-10-05T15:45:57.266Z,5.65
2022-10-05T15:48:46.310Z,5.35
2022-10-05T15:51:23.072Z,6.80
2022-10-05T15:54:38.024Z,9.55
2022-10-05T16:00:04.749Z,5.72
2022-10-05T16:02:43.528Z,4.35
2022-10-05T16:05:59.448Z,5.57
2022-10-05T16:08:50.762Z,4.13
2022-10-05T16:11:35.874Z,7.45
2022-10-05T16:14:15.311Z,12.07
2022-10-05T16:16:57.755Z,10.52
2022-10-05T16:19:30.018Z,6.32
2022-10-05T16:22:25.770Z,8.68
2022-10-05T16:25:06.691Z,9.43
2022-10-05T16:27:55.177Z,6.28
2022-10-05T16:30:24.297Z,7.75
2022-10-05T16:33:27.631Z,6.05
2022-10-05T16:36:26.165Z,7.80
2022-10-05T16:39:01.035Z,4.05
2022-10-05T16:41:37.255Z,4.90
2022-10-05T16:44:16.319Z,6.47
2022-10-05T16:47:27.604Z,6.32
2022-10-05T16:50:16.651Z,4.10
2022-10-05T16:52:48.227Z,6.90
2022-10-05T17:00:22.105Z,6.25
2022-10-05T17:03:13.634Z,5.33
2022-10-05T17:06:09.050Z,6.72
2022-10-05T17:09:13.909Z,3.90
2022-10-05T17:12:09.312Z,6.32
2022-10-05T17:15:12.554Z,6.40
2022-10-05T17:18:16.937Z,7.93
2022-10-05T17:21:04.868Z,7.85
2022-10-05T17:23:53.643Z,6.18
2022-10-05T17:26:23.820Z,6.10
2022-10-05T17:29:26.913Z,5.93
2022-10-05T17:32:06.075Z,4.93
2022-10-05T17:34:36.746Z,7.43
2022-10-05T17:37:32.493Z,7.00
2022-10-05T17:39:59.685Z,4.45
2022-10-05T17:42:26.722Z,5.93
2022-10-05T17:45:20.814Z,6.38
2022-10-05T17:48:06.103Z,5.80
2022-10-05T17:51:05.143Z,5.78
2022-10-05T17:53:54.021Z,7.55
2022-10-05T17:56:22.847Z,6.03
2022-10-05T17:58:54.691Z,6.07
2022-10-05T18:01:33.912Z,5.70
2022-10-05T18:04:13.331Z,5.60
2022-10-05T18:06:52.687Z,8.68
2022-10-05T18:09:22.567Z,13.23
2022-10-05T18:12:08.473Z,9.80
2022-10-05T18:15:07.785Z,9.32
2022-10-05T18:17:47.694Z,8.80
2022-10-05T18:20:31.567Z,7.97
2022-10-05T18:23:08.004Z,6.28
2022-10-05T18:25:44.978Z,7.20
2022-10-05T18:28:34.579Z,8.40
2022-10-05T18:31:31.469Z,11.38
2022-10-05T18:34:20.781Z,9.07
2022-10-05T18:37:07.368Z,6.95
2022-10-05T18:39:53.888Z,5.32
2022-10-05T18:42:50.072Z,4.35
2022-10-05T18:45:58.391Z,5.55
2022-10-05T18:48:54.435Z,5.20
2022-10-05T18:51:34.337Z,5.13
2022-10-05T18:54:29.842Z,4.75
2022-10-05T18:56:57.274Z,4.50
2022-10-05T18:59:49.878Z,4.70
2022-10-05T19:02:36.521Z,4.63
2022-10-05T19:05:48.943Z,4.30
2022-10-05T19:08:49.744Z,3.90
2022-10-05T19:11:33.936Z,4.95
2022-10-05T19:14:16.481Z,5.00
2022-10-05T19:17:08.777Z,4.72
2022-10-05T19:20:27.354Z,4.88
2022-10-05T19:23:12.548Z,4.50
2022-10-05T19:25:47.873Z,4.85
2022-10-05T19:28:17.169Z,4.53
2022-10-05T19:30:57.221Z,4.68
2022-10-05T19:33:33.570Z,4.20
2022-10-05T19:36:19.088Z,5.05
2022-10-05T19:39:05.065Z,4.57
2022-10-05T19:42:01.521Z,4.68
2022-10-05T19:44:38.788Z,7.25
2022-10-05T19:47:17.823Z,7.55
2022-10-05T19:49:56.808Z,4.30
2022-10-05T19:52:49.673Z,11.98
2022-10-05T19:55:31.144Z,9.52
2022-10-05T19:58:02.752Z,9.75
2022-10-05T20:00:35.345Z,20.02
2022-10-05T20:03:17.786Z,16.33
2022-10-05T20:05:45.353Z,14.00
2022-10-05T20:08:17.519Z,26.52
2022-10-05T20:10:46.858Z,14.18
2022-10-05T20:13:22.418Z,5.85
2022-10-05T20:16:27.271Z,11.00
2022-10-05T20:19:13.380Z,6.78
2022-10-05T20:21:46.345Z,11.05
2022-10-05T20:24:25.715Z,12.23
2022-10-05T20:27:05.472Z,12.40
2022-10-05T20:29:34.005Z,9.23
2022-10-05T20:32:04.371Z,12.93
2022-10-05T20:34:32.964Z,20.73
2022-10-05T20:37:00.077Z,16.08
2022-10-05T20:39:27.097Z,14.27
2022-10-05T20:41:54.157Z,11.07
2022-10-05T20:44:21.239Z,11.70
2022-10-05T20:46:48.487Z,6.70
2022-10-05T20:49:15.862Z,10.00
2022-10-05T20:51:43.375Z,8.55
2022-10-05T20:54:10.420Z,9.13
2022-10-05T20:56:37.493Z,11.13
2022-10-05T20:59:04.609Z,14.88
2022-10-05T21:01:32.037Z,12.07
2022-10-05T21:03:59.315Z,16.00
2022-10-05T21:06:29.957Z,14.55
2022-10-05T21:08:57.017Z,9.40
2022-10-05T21:11:24.177Z,28.52
2022-10-05T21:13:51.303Z,7.32
2022-10-05T21:16:19.638Z,20.15
2022-10-05T21:18:48.832Z,5.90
2022-10-05T21:21:17.818Z,13.50
2022-10-05T21:23:46.189Z,7.03
2022-10-05T21:26:14.406Z,9.85
2022-10-05T21:28:41.995Z,12.43
2022-10-05T21:34:51.064Z,8.03
2022-10-05T21:37:19.970Z,10.05
2022-10-05T21:39:47.003Z,15.75
2022-10-05T21:42:14.014Z,9.18
2022-10-05T21:44:41.015Z,7.45
2022-10-05T21:47:08.102Z,9.07
2022-10-05T21:49:36.215Z,4.28
2022-10-05T21:52:05.332Z,9.00
2022-10-05T21:54:33.121Z,9.05
2022-10-05T21:57:00.521Z,6.75
2022-10-05T21:59:31.411Z,5.80
2022-10-05T22:01:58.736Z,6.68
2022-10-05T22:04:25.731Z,9.95
2022-10-05T22:06:54.170Z,5.38
2022-10-05T22:09:21.169Z,8.90
2022-10-05T22:11:48.890Z,8.00
2022-10-05T22:14:16.330Z,7.25
2022-10-05T22:16:44.963Z,9.52
2022-10-05T22:19:18.963Z,6.28
2022-10-05T22:21:46.306Z,8.85
2022-10-05T22:24:13.377Z,3.92
2022-10-05T22:26:46.025Z,8.77
2022-10-05T22:29:15.758Z,3.97
2022-10-05T22:31:43.446Z,5.50
2022-10-05T22:34:10.659Z,6.18
2022-10-05T22:36:37.798Z,6.18
2022-10-05T22:39:04.788Z,6.45
2022-10-05T22:41:31.796Z,4.88
2022-10-05T22:43:59.231Z,4.00
2022-10-05T22:46:26.336Z,4.68
